sensor_id;sensor_type;location;lat;lon;timestamp;P1;durP1;ratioP1;P2;durP2;ratioP2
47403;SDS011;33157;51.508;4.288;2022-08-19T00:03:16;28.48;;;22.85;;
47403;SDS011;33157;51.508;4.288;2022-08-19T00:08:16;31.50;;;27.10;;
47403;SDS011;33157;51.508;4.288;2022-08-19T00:13:19;36.20;;;28.30;;
47403;SDS011;33157;51.508;4.288;2022-08-19T00:18:20;38.60;;;32.15;;
47403;SDS011;33157;51.508;4.288;2022-08-19T00:23:23;40.47;;;34.92;;
47403;SDS011;33157;51.508;4.288;2022-08-19T00:28:35;47.47;;;37.10;;
47403;SDS011;33157;51.508;4.288;2022-08-19T00:33:38;45.78;;;36.78;;
47403;SDS011;33157;51.508;4.288;2022-08-19T00:38:39;45.60;;;37.45;;
47403;SDS011;33157;51.508;4.288;2022-08-19T00:43:43;49.38;;;38.60;;
47403;SDS011;33157;51.508;4.288;2022-08-19T00:49:06;61.75;;;41.50;;
47403;SDS011;33157;51.508;4.288;2022-08-19T00:54:14;63.30;;;41.28;;
47403;SDS011;33157;51.508;4.288;2022-08-19T00:59:16;68.10;;;45.40;;
47403;SDS011;33157;51.508;4.288;2022-08-19T01:04:18;73.25;;;49.25;;
47403;SDS011;33157;51.508;4.288;2022-08-19T01:09:18;70.28;;;47.97;;
47403;SDS011;33157;51.508;4.288;2022-08-19T01:14:19;61.40;;;40.60;;
47403;SDS011;33157;51.508;4.288;2022-08-19T01:19:29;59.38;;;40.78;;
47403;SDS011;33157;51.508;4.288;2022-08-19T01:24:32;64.38;;;41.03;;
47403;SDS011;33157;51.508;4.288;2022-08-19T01:29:33;52.90;;;37.17;;
47403;SDS011;33157;51.508;4.288;2022-08-19T01:34:35;60.47;;;34.45;;
47403;SDS011;33157;51.508;4.288;2022-08-19T01:39:35;44.47;;;32.85;;
47403;SDS011;33157;51.508;4.288;2022-08-19T01:44:36;43.88;;;32.72;;
47403;SDS011;33157;51.508;4.288;2022-08-19T01:49:38;45.17;;;32.58;;
47403;SDS011;33157;51.508;4.288;2022-08-19T01:54:38;49.25;;;34.90;;
47403;SDS011;33157;51.508;4.288;2022-08-19T01:59:40;54.17;;;34.55;;
47403;SDS011;33157;51.508;4.288;2022-08-19T02:04:41;48.92;;;34.55;;
47403;SDS011;33157;51.508;4.288;2022-08-19T02:09:42;48.20;;;35.70;;
47403;SDS011;33157;51.508;4.288;2022-08-19T02:14:42;53.60;;;37.92;;
47403;SDS011;33157;51.508;4.288;2022-08-19T02:19:43;57.67;;;38.97;;
47403;SDS011;33157;51.508;4.288;2022-08-19T02:24:43;53.05;;;36.28;;
47403;SDS011;33157;51.508;4.288;2022-08-19T02:29:45;50.15;;;36.60;;
47403;SDS011;33157;51.508;4.288;2022-08-19T02:34:46;55.05;;;36.65;;
47403;SDS011;33157;51.508;4.288;2022-08-19T02:39:47;54.30;;;36.38;;
47403;SDS011;33157;51.508;4.288;2022-08-19T02:44:47;45.28;;;33.10;;
47403;SDS011;33157;51.508;4.288;2022-08-19T02:49:48;46.58;;;34.33;;
47403;SDS011;33157;51.508;4.288;2022-08-19T02:54:50;47.70;;;33.60;;
47403;SDS011;33157;51.508;4.288;2022-08-19T02:59:52;50.13;;;32.45;;
47403;SDS011;33157;51.508;4.288;2022-08-19T03:04:53;46.78;;;30.20;;
47403;SDS011;33157;51.508;4.288;2022-08-19T03:09:54;50.00;;;30.98;;
47403;SDS011;33157;51.508;4.288;2022-08-19T03:14:54;44.17;;;28.75;;
47403;SDS011;33157;51.508;4.288;2022-08-19T03:19:55;46.75;;;27.88;;
47403;SDS011;33157;51.508;4.288;2022-08-19T03:24:56;42.67;;;26.60;;
47403;SDS011;33157;51.508;4.288;2022-08-19T03:29:56;39.72;;;25.40;;
47403;SDS011;33157;51.508;4.288;2022-08-19T03:34:57;43.22;;;26.42;;
47403;SDS011;33157;51.508;4.288;2022-08-19T03:39:57;38.55;;;25.40;;
47403;SDS011;33157;51.508;4.288;2022-08-19T03:44:58;44.53;;;25.05;;
47403;SDS011;33157;51.508;4.288;2022-08-19T03:49:58;40.38;;;25.27;;
47403;SDS011;33157;51.508;4.288;2022-08-19T03:54:59;43.03;;;25.23;;
47403;SDS011;33157;51.508;4.288;2022-08-19T03:59:59;43.97;;;24.60;;
47403;SDS011;33157;51.508;4.288;2022-08-19T04:05:00;42.08;;;25.38;;
47403;SDS011;33157;51.508;4.288;2022-08-19T04:10:01;38.10;;;23.00;;
47403;SDS011;33157;51.508;4.288;2022-08-19T04:15:03;41.58;;;25.13;;
47403;SDS011;33157;51.508;4.288;2022-08-19T04:20:04;44.33;;;25.20;;
47403;SDS011;33157;51.508;4.288;2022-08-19T04:25:05;44.22;;;26.38;;
47403;SDS011;33157;51.508;4.288;2022-08-19T04:30:06;45.72;;;23.10;;
47403;SDS011;33157;51.508;4.288;2022-08-19T04:35:07;39.60;;;24.50;;
47403;SDS011;33157;51.508;4.288;2022-08-19T04:40:10;40.05;;;24.15;;
47403;SDS011;33157;51.508;4.288;2022-08-19T04:45:36;41.92;;;24.52;;
47403;SDS011;33157;51.508;4.288;2022-08-19T04:50:39;38.70;;;23.50;;
47403;SDS011;33157;51.508;4.288;2022-08-19T04:55:41;44.28;;;24.55;;
47403;SDS011;33157;51.508;4.288;2022-08-19T05:00:42;45.88;;;25.52;;
47403;SDS011;33157;51.508;4.288;2022-08-19T05:05:44;45.53;;;25.02;;
47403;SDS011;33157;51.508;4.288;2022-08-19T05:10:49;45.78;;;24.45;;
47403;SDS011;33157;51.508;4.288;2022-08-19T05:15:55;42.33;;;23.20;;
47403;SDS011;33157;51.508;4.288;2022-08-19T05:20:56;44.50;;;24.17;;
47403;SDS011;33157;51.508;4.288;2022-08-19T05:26:15;44.88;;;23.23;;
47403;SDS011;33157;51.508;4.288;2022-08-19T05:31:16;37.67;;;22.65;;
47403;SDS011;33157;51.508;4.288;2022-08-19T05:36:16;39.97;;;22.90;;
47403;SDS011;33157;51.508;4.288;2022-08-19T05:41:20;38.58;;;22.63;;
47403;SDS011;33157;51.508;4.288;2022-08-19T05:46:23;35.88;;;21.23;;
47403;SDS011;33157;51.508;4.288;2022-08-19T05:51:24;39.58;;;21.98;;
47403;SDS011;33157;51.508;4.288;2022-08-19T05:56:25;32.03;;;19.30;;
47403;SDS011;33157;51.508;4.288;2022-08-19T06:01:26;33.15;;;18.67;;
47403;SDS011;33157;51.508;4.288;2022-08-19T06:06:27;31.38;;;19.20;;
47403;SDS011;33157;51.508;4.288;2022-08-19T06:11:37;25.80;;;16.13;;
47403;SDS011;33157;51.508;4.288;2022-08-19T06:16:48;30.58;;;18.58;;
47403;SDS011;33157;51.508;4.288;2022-08-19T06:21:52;36.22;;;19.13;;
47403;SDS011;33157;51.508;4.288;2022-08-19T06:26:54;29.65;;;18.25;;
47403;SDS011;33157;51.508;4.288;2022-08-19T06:31:56;31.77;;;19.10;;
47403;SDS011;33157;51.508;4.288;2022-08-19T06:36:59;29.33;;;17.58;;
47403;SDS011;33157;51.508;4.288;2022-08-19T06:42:06;30.23;;;18.58;;
47403;SDS011;33157;51.508;4.288;2022-08-19T06:47:09;38.75;;;19.30;;
47403;SDS011;33157;51.508;4.288;2022-08-19T06:52:15;36.13;;;19.50;;
47403;SDS011;33157;51.508;4.288;2022-08-19T06:57:16;29.33;;;18.83;;
47403;SDS011;33157;51.508;4.288;2022-08-19T07:02:16;33.78;;;19.73;;
47403;SDS011;33157;51.508;4.288;2022-08-19T07:07:17;30.63;;;20.67;;
47403;SDS011;33157;51.508;4.288;2022-08-19T07:12:17;31.13;;;19.80;;
47403;SDS011;33157;51.508;4.288;2022-08-19T07:17:18;29.33;;;18.05;;
47403;SDS011;33157;51.508;4.288;2022-08-19T07:22:20;27.30;;;17.90;;
47403;SDS011;33157;51.508;4.288;2022-08-19T07:32:23;34.03;;;19.65;;
47403;SDS011;33157;51.508;4.288;2022-08-19T07:37:29;31.42;;;18.30;;
47403;SDS011;33157;51.508;4.288;2022-08-19T07:42:29;30.63;;;18.00;;
47403;SDS011;33157;51.508;4.288;2022-08-19T07:47:30;28.77;;;17.70;;
47403;SDS011;33157;51.508;4.288;2022-08-19T07:52:30;37.13;;;19.58;;
47403;SDS011;33157;51.508;4.288;2022-08-19T07:57:31;27.63;;;18.77;;
47403;SDS011;33157;51.508;4.288;2022-08-19T08:02:31;32.38;;;20.15;;
47403;SDS011;33157;51.508;4.288;2022-08-19T08:07:31;33.45;;;20.45;;
47403;SDS011;33157;51.508;4.288;2022-08-19T08:12:53;29.97;;;19.37;;
47403;SDS011;33157;51.508;4.288;2022-08-19T08:17:55;30.97;;;19.47;;
47403;SDS011;33157;51.508;4.288;2022-08-19T08:22:57;28.65;;;18.13;;
47403;SDS011;33157;51.508;4.288;2022-08-19T08:28:17;32.63;;;19.48;;
47403;SDS011;33157;51.508;4.288;2022-08-19T08:33:22;34.65;;;19.15;;
47403;SDS011;33157;51.508;4.288;2022-08-19T08:38:23;30.63;;;18.90;;
47403;SDS011;33157;51.508;4.288;2022-08-19T08:54:27;21.92;;;15.45;;
47403;SDS011;33157;51.508;4.288;2022-08-19T08:59:34;21.00;;;14.93;;
47403;SDS011;33157;51.508;4.288;2022-08-19T09:04:36;19.45;;;13.20;;
47403;SDS011;33157;51.508;4.288;2022-08-19T09:09:39;18.73;;;13.10;;
47403;SDS011;33157;51.508;4.288;2022-08-19T09:14:49;19.52;;;11.57;;
47403;SDS011;33157;51.508;4.288;2022-08-19T09:19:54;17.65;;;12.73;;
47403;SDS011;33157;51.508;4.288;2022-08-19T09:24:56;15.82;;;10.73;;
47403;SDS011;33157;51.508;4.288;2022-08-19T09:29:57;21.08;;;11.15;;
47403;SDS011;33157;51.508;4.288;2022-08-19T09:34:57;19.95;;;13.30;;
47403;SDS011;33157;51.508;4.288;2022-08-19T09:40:02;16.40;;;12.48;;
47403;SDS011;33157;51.508;4.288;2022-08-19T09:45:03;21.55;;;13.27;;
47403;SDS011;33157;51.508;4.288;2022-08-19T09:50:08;17.20;;;14.00;;
47403;SDS011;33157;51.508;4.288;2022-08-19T09:55:10;21.05;;;15.57;;
47403;SDS011;33157;51.508;4.288;2022-08-19T10:00:11;21.20;;;16.63;;
47403;SDS011;33157;51.508;4.288;2022-08-19T10:05:11;31.25;;;23.83;;
47403;SDS011;33157;51.508;4.288;2022-08-19T10:10:34;34.97;;;28.50;;
47403;SDS011;33157;51.508;4.288;2022-08-19T10:15:36;39.42;;;29.23;;
47403;SDS011;33157;51.508;4.288;2022-08-19T10:20:39;33.85;;;27.15;;
47403;SDS011;33157;51.508;4.288;2022-08-19T10:25:41;37.08;;;27.77;;
47403;SDS011;33157;51.508;4.288;2022-08-19T10:30:42;31.38;;;24.20;;
47403;SDS011;33157;51.508;4.288;2022-08-19T10:35:43;38.22;;;26.85;;
47403;SDS011;33157;51.508;4.288;2022-08-19T10:40:44;37.58;;;25.13;;
47403;SDS011;33157;51.508;4.288;2022-08-19T10:45:48;30.00;;;22.77;;
47403;SDS011;33157;51.508;4.288;2022-08-19T10:50:51;25.02;;;17.83;;
47403;SDS011;33157;51.508;4.288;2022-08-19T10:56:11;24.40;;;18.05;;
47403;SDS011;33157;51.508;4.288;2022-08-19T11:01:32;27.80;;;21.92;;
47403;SDS011;33157;51.508;4.288;2022-08-19T11:06:33;33.17;;;23.75;;
47403;SDS011;33157;51.508;4.288;2022-08-19T11:11:34;25.65;;;21.70;;
47403;SDS011;33157;51.508;4.288;2022-08-19T11:16:40;25.85;;;19.55;;
47403;SDS011;33157;51.508;4.288;2022-08-19T11:21:42;24.33;;;17.10;;
47403;SDS011;33157;51.508;4.288;2022-08-19T11:26:44;23.75;;;17.42;;
47403;SDS011;33157;51.508;4.288;2022-08-19T11:31:46;23.40;;;18.25;;
47403;SDS011;33157;51.508;4.288;2022-08-19T11:36:49;23.35;;;18.65;;
47403;SDS011;33157;51.508;4.288;2022-08-19T11:41:51;23.33;;;17.42;;
47403;SDS011;33157;51.508;4.288;2022-08-19T11:46:51;19.23;;;15.52;;
47403;SDS011;33157;51.508;4.288;2022-08-19T11:51:52;18.67;;;13.77;;
47403;SDS011;33157;51.508;4.288;2022-08-19T11:56:53;27.45;;;14.27;;
47403;SDS011;33157;51.508;4.288;2022-08-19T12:01:53;20.07;;;14.60;;
47403;SDS011;33157;51.508;4.288;2022-08-19T12:06:55;16.63;;;13.05;;
47403;SDS011;33157;51.508;4.288;2022-08-19T12:11:56;20.20;;;14.80;;
47403;SDS011;33157;51.508;4.288;2022-08-19T12:16:56;25.00;;;15.20;;
47403;SDS011;33157;51.508;4.288;2022-08-19T12:22:00;21.67;;;15.77;;
47403;SDS011;33157;51.508;4.288;2022-08-19T12:27:02;19.95;;;14.40;;
47403;SDS011;33157;51.508;4.288;2022-08-19T12:32:03;17.30;;;13.07;;
47403;SDS011;33157;51.508;4.288;2022-08-19T12:37:04;26.08;;;12.95;;
47403;SDS011;33157;51.508;4.288;2022-08-19T12:42:05;18.92;;;12.43;;
47403;SDS011;33157;51.508;4.288;2022-08-19T12:47:07;15.70;;;11.40;;
47403;SDS011;33157;51.508;4.288;2022-08-19T12:52:09;14.77;;;11.75;;
47403;SDS011;33157;51.508;4.288;2022-08-19T12:57:10;13.23;;;11.20;;
47403;SDS011;33157;51.508;4.288;2022-08-19T13:02:14;12.55;;;10.57;;
47403;SDS011;33157;51.508;4.288;2022-08-19T13:07:14;14.57;;;11.23;;
47403;SDS011;33157;51.508;4.288;2022-08-19T13:12:15;14.98;;;11.52;;
47403;SDS011;33157;51.508;4.288;2022-08-19T13:17:15;16.63;;;12.27;;
47403;SDS011;33157;51.508;4.288;2022-08-19T13:22:16;14.63;;;11.20;;
47403;SDS011;33157;51.508;4.288;2022-08-19T13:27:17;12.18;;;10.55;;
47403;SDS011;33157;51.508;4.288;2022-08-19T13:32:17;13.80;;;9.80;;
47403;SDS011;33157;51.508;4.288;2022-08-19T13:37:36;12.05;;;9.52;;
47403;SDS011;33157;51.508;4.288;2022-08-19T13:42:43;13.70;;;9.55;;
47403;SDS011;33157;51.508;4.288;2022-08-19T13:47:47;12.10;;;8.45;;
47403;SDS011;33157;51.508;4.288;2022-08-19T13:52:48;12.75;;;8.98;;
47403;SDS011;33157;51.508;4.288;2022-08-19T13:57:52;12.38;;;9.32;;
47403;SDS011;33157;51.508;4.288;2022-08-19T14:02:54;16.00;;;11.10;;
47403;SDS011;33157;51.508;4.288;2022-08-19T14:07:56;13.63;;;9.77;;
47403;SDS011;33157;51.508;4.288;2022-08-19T14:12:57;12.90;;;8.88;;
47403;SDS011;33157;51.508;4.288;2022-08-19T14:22:59;13.18;;;9.57;;
47403;SDS011;33157;51.508;4.288;2022-08-19T14:28:00;11.43;;;8.38;;
47403;SDS011;33157;51.508;4.288;2022-08-19T14:33:01;12.73;;;8.40;;
47403;SDS011;33157;51.508;4.288;2022-08-19T14:38:03;13.83;;;9.70;;
47403;SDS011;33157;51.508;4.288;2022-08-19T14:43:05;7.88;;;5.65;;
47403;SDS011;33157;51.508;4.288;2022-08-19T14:48:05;9.73;;;5.03;;
47403;SDS011;33157;51.508;4.288;2022-08-19T14:53:07;7.10;;;4.38;;
47403;SDS011;33157;51.508;4.288;2022-08-19T14:58:08;7.27;;;3.23;;
47403;SDS011;33157;51.508;4.288;2022-08-19T15:03:08;5.03;;;1.90;;
47403;SDS011;33157;51.508;4.288;2022-08-19T15:08:09;7.18;;;2.47;;
47403;SDS011;33157;51.508;4.288;2022-08-19T15:13:10;7.22;;;3.97;;
47403;SDS011;33157;51.508;4.288;2022-08-19T15:18:10;9.55;;;3.80;;
47403;SDS011;33157;51.508;4.288;2022-08-19T15:23:13;10.98;;;4.38;;
47403;SDS011;33157;51.508;4.288;2022-08-19T15:28:15;8.70;;;5.43;;
47403;SDS011;33157;51.508;4.288;2022-08-19T15:33:16;10.00;;;5.00;;
47403;SDS011;33157;51.508;4.288;2022-08-19T15:38:20;4.88;;;3.45;;
47403;SDS011;33157;51.508;4.288;2022-08-19T15:43:25;7.90;;;4.30;;
47403;SDS011;33157;51.508;4.288;2022-08-19T15:48:25;9.57;;;5.40;;
47403;SDS011;33157;51.508;4.288;2022-08-19T15:53:25;10.10;;;6.83;;
47403;SDS011;33157;51.508;4.288;2022-08-19T15:58:28;12.25;;;7.57;;
47403;SDS011;33157;51.508;4.288;2022-08-19T16:03:48;11.05;;;7.25;;
47403;SDS011;33157;51.508;4.288;2022-08-19T16:09:07;10.57;;;7.10;;
47403;SDS011;33157;51.508;4.288;2022-08-19T16:14:08;11.45;;;6.72;;
47403;SDS011;33157;51.508;4.288;2022-08-19T16:19:08;7.05;;;5.50;;
47403;SDS011;33157;51.508;4.288;2022-08-19T16:24:11;11.25;;;7.10;;
47403;SDS011;33157;51.508;4.288;2022-08-19T16:29:14;7.72;;;4.97;;
47403;SDS011;33157;51.508;4.288;2022-08-19T16:34:16;7.70;;;4.80;;
47403;SDS011;33157;51.508;4.288;2022-08-19T16:39:16;2.37;;;1.27;;
47403;SDS011;33157;51.508;4.288;2022-08-19T16:44:17;4.55;;;1.40;;
47403;SDS011;33157;51.508;4.288;2022-08-19T16:49:18;3.20;;;1.48;;
47403;SDS011;33157;51.508;4.288;2022-08-19T16:54:19;3.60;;;1.60;;
47403;SDS011;33157;51.508;4.288;2022-08-19T16:59:19;4.60;;;1.40;;
47403;SDS011;33157;51.508;4.288;2022-08-19T17:04:20;4.60;;;1.20;;
47403;SDS011;33157;51.508;4.288;2022-08-19T17:09:20;3.45;;;1.13;;
47403;SDS011;33157;51.508;4.288;2022-08-19T17:14:21;2.08;;;0.63;;
47403;SDS011;33157;51.508;4.288;2022-08-19T17:19:22;3.03;;;0.80;;
47403;SDS011;33157;51.508;4.288;2022-08-19T17:24:22;4.10;;;0.80;;
47403;SDS011;33157;51.508;4.288;2022-08-19T17:29:23;4.32;;;0.77;;
47403;SDS011;33157;51.508;4.288;2022-08-19T17:34:23;3.40;;;0.75;;
47403;SDS011;33157;51.508;4.288;2022-08-19T17:39:24;3.38;;;0.80;;
47403;SDS011;33157;51.508;4.288;2022-08-19T17:44:24;3.13;;;0.77;;
47403;SDS011;33157;51.508;4.288;2022-08-19T17:49:25;3.88;;;1.13;;
47403;SDS011;33157;51.508;4.288;2022-08-19T17:54:25;5.97;;;1.35;;
47403;SDS011;33157;51.508;4.288;2022-08-19T17:59:30;6.95;;;1.55;;
47403;SDS011;33157;51.508;4.288;2022-08-19T18:04:30;5.53;;;1.38;;
47403;SDS011;33157;51.508;4.288;2022-08-19T18:09:33;7.25;;;1.80;;
47403;SDS011;33157;51.508;4.288;2022-08-19T18:14:36;3.30;;;1.52;;
47403;SDS011;33157;51.508;4.288;2022-08-19T18:19:39;6.75;;;2.00;;
47403;SDS011;33157;51.508;4.288;2022-08-19T18:24:41;3.85;;;1.40;;
47403;SDS011;33157;51.508;4.288;2022-08-19T18:29:41;5.80;;;1.52;;
47403;SDS011;33157;51.508;4.288;2022-08-19T18:34:43;6.70;;;1.85;;
47403;SDS011;33157;51.508;4.288;2022-08-19T18:45:03;9.65;;;2.08;;
47403;SDS011;33157;51.508;4.288;2022-08-19T18:50:23;9.38;;;2.33;;
47403;SDS011;33157;51.508;4.288;2022-08-19T18:55:23;6.20;;;2.08;;
47403;SDS011;33157;51.508;4.288;2022-08-19T19:00:25;7.30;;;2.10;;
47403;SDS011;33157;51.508;4.288;2022-08-19T19:05:29;8.65;;;2.08;;
47403;SDS011;33157;51.508;4.288;2022-08-19T19:10:29;9.93;;;2.92;;
47403;SDS011;33157;51.508;4.288;2022-08-19T19:15:29;8.82;;;2.47;;
47403;SDS011;33157;51.508;4.288;2022-08-19T19:20:31;6.68;;;2.15;;
47403;SDS011;33157;51.508;4.288;2022-08-19T19:25:32;10.57;;;2.63;;
47403;SDS011;33157;51.508;4.288;2022-08-19T19:30:33;9.70;;;3.15;;
47403;SDS011;33157;51.508;4.288;2022-08-19T19:35:34;9.15;;;3.70;;
47403;SDS011;33157;51.508;4.288;2022-08-19T19:40:34;9.15;;;2.72;;
47403;SDS011;33157;51.508;4.288;2022-08-19T19:45:34;6.13;;;2.17;;
47403;SDS011;33157;51.508;4.288;2022-08-19T19:50:36;6.82;;;2.67;;
47403;SDS011;33157;51.508;4.288;2022-08-19T19:55:37;9.05;;;2.47;;
47403;SDS011;33157;51.508;4.288;2022-08-19T20:00:40;6.85;;;2.58;;
47403;SDS011;33157;51.508;4.288;2022-08-19T20:05:40;7.40;;;2.42;;
47403;SDS011;33157;51.508;4.288;2022-08-19T20:10:41;4.82;;;1.98;;
47403;SDS011;33157;51.508;4.288;2022-08-19T20:15:42;7.57;;;1.70;;
47403;SDS011;33157;51.508;4.288;2022-08-19T20:20:43;6.70;;;2.20;;
47403;SDS011;33157;51.508;4.288;2022-08-19T20:30:45;7.83;;;2.90;;
47403;SDS011;33157;51.508;4.288;2022-08-19T20:35:46;10.10;;;3.33;;
47403;SDS011;33157;51.508;4.288;2022-08-19T20:40:46;11.18;;;3.95;;
47403;SDS011;33157;51.508;4.288;2022-08-19T20:45:47;13.52;;;4.40;;
47403;SDS011;33157;51.508;4.288;2022-08-19T20:50:47;11.68;;;4.53;;
47403;SDS011;33157;51.508;4.288;2022-08-19T20:55:48;10.00;;;4.78;;
47403;SDS011;33157;51.508;4.288;2022-08-19T21:00:50;12.40;;;5.55;;
47403;SDS011;33157;51.508;4.288;2022-08-19T21:05:53;12.48;;;6.13;;
47403;SDS011;33157;51.508;4.288;2022-08-19T21:10:55;13.98;;;5.95;;
47403;SDS011;33157;51.508;4.288;2022-08-19T21:15:56;13.00;;;5.97;;
47403;SDS011;33157;51.508;4.288;2022-08-19T21:20:56;12.98;;;6.97;;
47403;SDS011;33157;51.508;4.288;2022-08-19T21:25:58;14.88;;;7.25;;
47403;SDS011;33157;51.508;4.288;2022-08-19T21:30:59;12.18;;;6.82;;
47403;SDS011;33157;51.508;4.288;2022-08-19T21:36:00;11.85;;;6.28;;
47403;SDS011;33157;51.508;4.288;2022-08-19T21:41:08;11.90;;;5.95;;
47403;SDS011;33157;51.508;4.288;2022-08-19T21:46:09;9.82;;;4.38;;
47403;SDS011;33157;51.508;4.288;2022-08-19T21:56:35;9.40;;;4.45;;
47403;SDS011;33157;51.508;4.288;2022-08-19T22:01:43;8.40;;;3.88;;
47403;SDS011;33157;51.508;4.288;2022-08-19T22:06:43;9.10;;;4.07;;
47403;SDS011;33157;51.508;4.288;2022-08-19T22:11:46;9.02;;;5.13;;
47403;SDS011;33157;51.508;4.288;2022-08-19T22:16:48;10.47;;;4.73;;
47403;SDS011;33157;51.508;4.288;2022-08-19T22:21:48;12.55;;;5.32;;
47403;SDS011;33157;51.508;4.288;2022-08-19T22:26:49;16.60;;;5.97;;
47403;SDS011;33157;51.508;4.288;2022-08-19T22:31:49;13.52;;;6.65;;
47403;SDS011;33157;51.508;4.288;2022-08-19T22:42:03;19.13;;;5.93;;
47403;SDS011;33157;51.508;4.288;2022-08-19T22:47:04;15.03;;;5.83;;
47403;SDS011;33157;51.508;4.288;2022-08-19T22:52:05;14.57;;;4.63;;
47403;SDS011;33157;51.508;4.288;2022-08-19T22:57:20;17.83;;;4.60;;
47403;SDS011;33157;51.508;4.288;2022-08-19T23:02:23;18.73;;;5.43;;
47403;SDS011;33157;51.508;4.288;2022-08-19T23:07:25;17.23;;;5.10;;
47403;SDS011;33157;51.508;4.288;2022-08-19T23:12:30;15.30;;;4.90;;
47403;SDS011;33157;51.508;4.288;2022-08-19T23:17:32;22.20;;;4.53;;
47403;SDS011;33157;51.508;4.288;2022-08-19T23:22:33;15.23;;;5.00;;
47403;SDS011;33157;51.508;4.288;2022-08-19T23:27:35;14.45;;;5.00;;
47403;SDS011;33157;51.508;4.288;2022-08-19T23:32:55;17.15;;;4.72;;
47403;SDS011;33157;51.508;4.288;2022-08-19T23:38:01;19.00;;;5.65;;
47403;SDS011;33157;51.508;4.288;2022-08-19T23:43:05;21.05;;;6.18;;
47403;SDS011;33157;51.508;4.288;2022-08-19T23:48:07;17.13;;;6.07;;
47403;SDS011;33157;51.508;4.288;2022-08-19T23:58:10;28.88;;;7.47;;
